sensor_id;sensor_type;location;lat;lon;timestamp;P1;durP1;ratioP1;P2;durP2;ratioP2
2474;SDS011;1248;48.694;10.160;2023-04-25T00:00:21;6.23;;;5.63;;
2474;SDS011;1248;48.694;10.160;2023-04-25T00:02:48;7.30;;;5.03;;
2474;SDS011;1248;48.694;10.160;2023-04-25T00:05:15;8.17;;;5.40;;
2474;SDS011;1248;48.694;10.160;2023-04-25T00:07:42;4.60;;;4.20;;
2474;SDS011;1248;48.694;10.160;2023-04-25T00:10:09;7.40;;;5.53;;
2474;SDS011;1248;48.694;10.160;2023-04-25T00:12:38;6.03;;;5.28;;
2474;SDS011;1248;48.694;10.160;2023-04-25T00:15:07;6.67;;;4.93;;
2474;SDS011;1248;48.694;10.160;2023-04-25T00:17:35;6.87;;;4.70;;
2474;SDS011;1248;48.694;10.160;2023-04-25T00:20:04;6.03;;;4.63;;
2474;SDS011;1248;48.694;10.160;2023-04-25T00:22:34;4.47;;;4.07;;
2474;SDS011;1248;48.694;10.160;2023-04-25T00:25:02;3.93;;;3.63;;
2474;SDS011;1248;48.694;10.160;2023-04-25T00:27:30;5.27;;;4.30;;
2474;SDS011;1248;48.694;10.160;2023-04-25T00:29:59;7.40;;;4.00;;
2474;SDS011;1248;48.694;10.160;2023-04-25T00:32:26;7.30;;;4.77;;
2474;SDS011;1248;48.694;10.160;2023-04-25T00:34:53;10.87;;;5.07;;
2474;SDS011;1248;48.694;10.160;2023-04-25T00:37:21;12.03;;;4.53;;
2474;SDS011;1248;48.694;10.160;2023-04-25T00:39:48;3.57;;;3.27;;
2474;SDS011;1248;48.694;10.160;2023-04-25T00:42:15;5.53;;;4.10;;
2474;SDS011;1248;48.694;10.160;2023-04-25T00:44:42;4.80;;;3.87;;
2474;SDS011;1248;48.694;10.160;2023-04-25T00:47:11;5.83;;;4.33;;
2474;SDS011;1248;48.694;10.160;2023-04-25T00:49:38;4.33;;;3.90;;
2474;SDS011;1248;48.694;10.160;2023-04-25T00:52:05;7.07;;;5.53;;
2474;SDS011;1248;48.694;10.160;2023-04-25T00:54:32;5.78;;;5.22;;
2474;SDS011;1248;48.694;10.160;2023-04-25T00:56:59;5.13;;;3.83;;
2474;SDS011;1248;48.694;10.160;2023-04-25T00:59:27;3.93;;;3.53;;
2474;SDS011;1248;48.694;10.160;2023-04-25T01:01:55;5.07;;;4.00;;
2474;SDS011;1248;48.694;10.160;2023-04-25T01:04:24;4.93;;;4.47;;
2474;SDS011;1248;48.694;10.160;2023-04-25T01:06:51;4.00;;;3.63;;
2474;SDS011;1248;48.694;10.160;2023-04-25T01:09:18;6.90;;;4.60;;
2474;SDS011;1248;48.694;10.160;2023-04-25T01:11:46;3.65;;;3.35;;
2474;SDS011;1248;48.694;10.160;2023-04-25T01:14:13;7.30;;;4.60;;
2474;SDS011;1248;48.694;10.160;2023-04-25T01:16:40;6.07;;;4.60;;
2474;SDS011;1248;48.694;10.160;2023-04-25T01:19:09;6.80;;;5.07;;
2474;SDS011;1248;48.694;10.160;2023-04-25T01:21:38;8.07;;;5.05;;
2474;SDS011;1248;48.694;10.160;2023-04-25T01:24:06;5.03;;;4.53;;
2474;SDS011;1248;48.694;10.160;2023-04-25T01:26:33;5.57;;;4.53;;
2474;SDS011;1248;48.694;10.160;2023-04-25T01:29:00;6.30;;;4.97;;
2474;SDS011;1248;48.694;10.160;2023-04-25T01:31:27;6.43;;;5.20;;
2474;SDS011;1248;48.694;10.160;2023-04-25T01:33:55;5.50;;;5.00;;
2474;SDS011;1248;48.694;10.160;2023-04-25T01:36:22;5.20;;;4.70;;
2474;SDS011;1248;48.694;10.160;2023-04-25T01:38:50;7.13;;;5.20;;
2474;SDS011;1248;48.694;10.160;2023-04-25T01:41:18;7.67;;;5.33;;
2474;SDS011;1248;48.694;10.160;2023-04-25T01:43:45;6.28;;;5.47;;
2474;SDS011;1248;48.694;10.160;2023-04-25T01:46:12;8.10;;;6.83;;
2474;SDS011;1248;48.694;10.160;2023-04-25T01:48:39;5.77;;;5.03;;
2474;SDS011;1248;48.694;10.160;2023-04-25T01:51:06;5.23;;;4.73;;
2474;SDS011;1248;48.694;10.160;2023-04-25T01:53:33;6.20;;;5.10;;
2474;SDS011;1248;48.694;10.160;2023-04-25T01:56:01;4.90;;;4.50;;
2474;SDS011;1248;48.694;10.160;2023-04-25T01:58:29;5.73;;;4.30;;
2474;SDS011;1248;48.694;10.160;2023-04-25T02:00:56;5.47;;;4.67;;
2474;SDS011;1248;48.694;10.160;2023-04-25T02:03:23;5.23;;;3.40;;
2474;SDS011;1248;48.694;10.160;2023-04-25T02:05:50;4.40;;;3.40;;
2474;SDS011;1248;48.694;10.160;2023-04-25T02:08:17;4.33;;;3.40;;
2474;SDS011;1248;48.694;10.160;2023-04-25T02:10:44;5.50;;;3.90;;
2474;SDS011;1248;48.694;10.160;2023-04-25T02:13:12;6.63;;;4.40;;
2474;SDS011;1248;48.694;10.160;2023-04-25T02:15:39;4.73;;;4.13;;
2474;SDS011;1248;48.694;10.160;2023-04-25T02:18:06;7.60;;;4.23;;
2474;SDS011;1248;48.694;10.160;2023-04-25T02:20:35;9.70;;;6.10;;
2474;SDS011;1248;48.694;10.160;2023-04-25T02:23:02;8.70;;;5.40;;
2474;SDS011;1248;48.694;10.160;2023-04-25T02:25:30;8.33;;;4.97;;
2474;SDS011;1248;48.694;10.160;2023-04-25T02:27:57;4.63;;;4.23;;
2474;SDS011;1248;48.694;10.160;2023-04-25T02:30:25;7.10;;;5.00;;
2474;SDS011;1248;48.694;10.160;2023-04-25T02:32:52;8.80;;;6.22;;
2474;SDS011;1248;48.694;10.160;2023-04-25T02:35:19;8.30;;;5.30;;
2474;SDS011;1248;48.694;10.160;2023-04-25T02:37:46;5.97;;;4.80;;
2474;SDS011;1248;48.694;10.160;2023-04-25T02:40:13;5.03;;;4.53;;
2474;SDS011;1248;48.694;10.160;2023-04-25T02:42:40;7.40;;;4.50;;
2474;SDS011;1248;48.694;10.160;2023-04-25T02:45:08;10.93;;;5.50;;
2474;SDS011;1248;48.694;10.160;2023-04-25T02:47:37;13.63;;;6.07;;
2474;SDS011;1248;48.694;10.160;2023-04-25T02:50:04;9.90;;;6.23;;
2474;SDS011;1248;48.694;10.160;2023-04-25T02:52:32;12.53;;;5.97;;
2474;SDS011;1248;48.694;10.160;2023-04-25T02:54:59;18.43;;;7.93;;
2474;SDS011;1248;48.694;10.160;2023-04-25T02:57:26;12.70;;;7.40;;
2474;SDS011;1248;48.694;10.160;2023-04-25T02:59:53;15.63;;;7.53;;
2474;SDS011;1248;48.694;10.160;2023-04-25T03:02:20;9.20;;;5.40;;
2474;SDS011;1248;48.694;10.160;2023-04-25T03:04:48;4.90;;;4.50;;
2474;SDS011;1248;48.694;10.160;2023-04-25T03:07:15;6.77;;;4.70;;
2474;SDS011;1248;48.694;10.160;2023-04-25T03:09:42;6.13;;;4.97;;
2474;SDS011;1248;48.694;10.160;2023-04-25T03:12:09;4.60;;;3.77;;
2474;SDS011;1248;48.694;10.160;2023-04-25T03:14:36;5.57;;;5.00;;
2474;SDS011;1248;48.694;10.160;2023-04-25T03:17:03;5.73;;;4.17;;
2474;SDS011;1248;48.694;10.160;2023-04-25T03:19:31;7.63;;;4.47;;
2474;SDS011;1248;48.694;10.160;2023-04-25T03:21:59;5.30;;;4.90;;
2474;SDS011;1248;48.694;10.160;2023-04-25T03:24:26;4.90;;;4.40;;
2474;SDS011;1248;48.694;10.160;2023-04-25T03:26:53;6.00;;;4.40;;
2474;SDS011;1248;48.694;10.160;2023-04-25T03:29:20;6.03;;;4.40;;
2474;SDS011;1248;48.694;10.160;2023-04-25T03:31:50;5.13;;;4.57;;
2474;SDS011;1248;48.694;10.160;2023-04-25T03:34:17;6.43;;;4.00;;
2474;SDS011;1248;48.694;10.160;2023-04-25T03:36:44;6.27;;;4.90;;
2474;SDS011;1248;48.694;10.160;2023-04-25T03:39:12;7.73;;;4.67;;
2474;SDS011;1248;48.694;10.160;2023-04-25T03:41:39;7.60;;;4.87;;
2474;SDS011;1248;48.694;10.160;2023-04-25T03:44:06;5.00;;;4.60;;
2474;SDS011;1248;48.694;10.160;2023-04-25T03:46:33;5.90;;;5.27;;
2474;SDS011;1248;48.694;10.160;2023-04-25T03:49:00;8.35;;;6.63;;
2474;SDS011;1248;48.694;10.160;2023-04-25T03:51:27;6.33;;;5.17;;
2474;SDS011;1248;48.694;10.160;2023-04-25T03:53:54;7.30;;;5.47;;
2474;SDS011;1248;48.694;10.160;2023-04-25T03:56:22;40.50;;;15.87;;
2474;SDS011;1248;48.694;10.160;2023-04-25T03:58:50;42.33;;;19.07;;
2474;SDS011;1248;48.694;10.160;2023-04-25T04:01:17;33.70;;;15.17;;
2474;SDS011;1248;48.694;10.160;2023-04-25T04:03:44;12.32;;;7.90;;
2474;SDS011;1248;48.694;10.160;2023-04-25T04:06:11;8.83;;;6.90;;
2474;SDS011;1248;48.694;10.160;2023-04-25T04:08:38;7.00;;;6.30;;
2474;SDS011;1248;48.694;10.160;2023-04-25T04:11:05;8.60;;;7.67;;
2474;SDS011;1248;48.694;10.160;2023-04-25T04:13:34;8.53;;;6.70;;
2474;SDS011;1248;48.694;10.160;2023-04-25T04:16:01;8.57;;;7.13;;
2474;SDS011;1248;48.694;10.160;2023-04-25T04:18:29;7.90;;;6.57;;
2474;SDS011;1248;48.694;10.160;2023-04-25T04:20:56;8.43;;;6.07;;
2474;SDS011;1248;48.694;10.160;2023-04-25T04:23:23;7.83;;;6.23;;
2474;SDS011;1248;48.694;10.160;2023-04-25T04:25:52;7.77;;;5.30;;
2474;SDS011;1248;48.694;10.160;2023-04-25T04:28:19;8.13;;;6.67;;
2474;SDS011;1248;48.694;10.160;2023-04-25T04:30:48;6.20;;;5.30;;
2474;SDS011;1248;48.694;10.160;2023-04-25T04:33:16;6.07;;;5.50;;
2474;SDS011;1248;48.694;10.160;2023-04-25T04:35:45;12.30;;;5.07;;
2474;SDS011;1248;48.694;10.160;2023-04-25T04:38:14;9.13;;;5.20;;
2474;SDS011;1248;48.694;10.160;2023-04-25T04:40:41;8.67;;;6.73;;
2474;SDS011;1248;48.694;10.160;2023-04-25T04:43:08;9.60;;;7.00;;
2474;SDS011;1248;48.694;10.160;2023-04-25T04:45:36;7.27;;;6.33;;
2474;SDS011;1248;48.694;10.160;2023-04-25T04:48:05;9.83;;;6.50;;
2474;SDS011;1248;48.694;10.160;2023-04-25T04:50:32;6.73;;;5.93;;
2474;SDS011;1248;48.694;10.160;2023-04-25T04:52:59;7.93;;;5.13;;
2474;SDS011;1248;48.694;10.160;2023-04-25T04:55:26;6.50;;;5.33;;
2474;SDS011;1248;48.694;10.160;2023-04-25T04:57:53;7.35;;;5.53;;
2474;SDS011;1248;48.694;10.160;2023-04-25T05:00:21;9.20;;;5.30;;
2474;SDS011;1248;48.694;10.160;2023-04-25T05:02:48;7.80;;;5.17;;
2474;SDS011;1248;48.694;10.160;2023-04-25T05:05:16;8.20;;;5.63;;
2474;SDS011;1248;48.694;10.160;2023-04-25T05:07:43;7.80;;;5.57;;
2474;SDS011;1248;48.694;10.160;2023-04-25T05:10:10;7.60;;;5.50;;
2474;SDS011;1248;48.694;10.160;2023-04-25T05:12:37;7.33;;;6.03;;
2474;SDS011;1248;48.694;10.160;2023-04-25T05:15:05;8.70;;;7.00;;
2474;SDS011;1248;48.694;10.160;2023-04-25T05:17:32;9.27;;;6.00;;
2474;SDS011;1248;48.694;10.160;2023-04-25T05:20:00;9.17;;;6.93;;
2474;SDS011;1248;48.694;10.160;2023-04-25T05:22:28;6.43;;;4.60;;
2474;SDS011;1248;48.694;10.160;2023-04-25T05:24:55;7.25;;;4.55;;
2474;SDS011;1248;48.694;10.160;2023-04-25T05:27:22;4.57;;;4.27;;
2474;SDS011;1248;48.694;10.160;2023-04-25T05:29:49;5.37;;;4.30;;
2474;SDS011;1248;48.694;10.160;2023-04-25T05:32:17;8.23;;;5.57;;
2474;SDS011;1248;48.694;10.160;2023-04-25T05:34:44;5.77;;;3.97;;
2474;SDS011;1248;48.694;10.160;2023-04-25T05:37:11;8.83;;;4.50;;
2474;SDS011;1248;48.694;10.160;2023-04-25T05:39:39;5.20;;;4.70;;
2474;SDS011;1248;48.694;10.160;2023-04-25T05:42:06;11.67;;;5.10;;
2474;SDS011;1248;48.694;10.160;2023-04-25T05:44:33;8.40;;;5.13;;
2474;SDS011;1248;48.694;10.160;2023-04-25T05:47:00;12.97;;;5.80;;
2474;SDS011;1248;48.694;10.160;2023-04-25T05:49:27;14.27;;;5.60;;
2474;SDS011;1248;48.694;10.160;2023-04-25T05:51:54;11.57;;;6.07;;
2474;SDS011;1248;48.694;10.160;2023-04-25T05:54:21;9.77;;;6.17;;
2474;SDS011;1248;48.694;10.160;2023-04-25T05:56:50;8.23;;;5.60;;
2474;SDS011;1248;48.694;10.160;2023-04-25T05:59:17;5.00;;;4.50;;
2474;SDS011;1248;48.694;10.160;2023-04-25T06:01:44;5.23;;;4.07;;
2474;SDS011;1248;48.694;10.160;2023-04-25T06:04:12;4.83;;;3.83;;
2474;SDS011;1248;48.694;10.160;2023-04-25T06:06:39;16.33;;;3.70;;
2474;SDS011;1248;48.694;10.160;2023-04-25T06:09:06;5.00;;;4.50;;
2474;SDS011;1248;48.694;10.160;2023-04-25T06:11:33;4.50;;;4.10;;
2474;SDS011;1248;48.694;10.160;2023-04-25T06:14:01;5.17;;;2.97;;
2474;SDS011;1248;48.694;10.160;2023-04-25T06:16:28;4.60;;;3.10;;
2474;SDS011;1248;48.694;10.160;2023-04-25T06:18:55;3.08;;;2.78;;
2474;SDS011;1248;48.694;10.160;2023-04-25T06:21:22;14.33;;;6.03;;
2474;SDS011;1248;48.694;10.160;2023-04-25T06:23:49;4.27;;;3.57;;
2474;SDS011;1248;48.694;10.160;2023-04-25T06:26:16;3.40;;;2.90;;
2474;SDS011;1248;48.694;10.160;2023-04-25T06:28:43;6.25;;;3.05;;
2474;SDS011;1248;48.694;10.160;2023-04-25T06:31:12;2.73;;;2.53;;
2474;SDS011;1248;48.694;10.160;2023-04-25T06:33:39;3.93;;;3.13;;
2474;SDS011;1248;48.694;10.160;2023-04-25T06:36:06;4.80;;;3.60;;
2474;SDS011;1248;48.694;10.160;2023-04-25T06:38:33;7.10;;;3.30;;
2474;SDS011;1248;48.694;10.160;2023-04-25T06:41:01;4.17;;;3.50;;
2474;SDS011;1248;48.694;10.160;2023-04-25T06:43:28;6.47;;;3.93;;
2474;SDS011;1248;48.694;10.160;2023-04-25T06:45:58;6.17;;;4.20;;
2474;SDS011;1248;48.694;10.160;2023-04-25T06:48:27;4.57;;;3.40;;
2474;SDS011;1248;48.694;10.160;2023-04-25T06:50:54;5.93;;;3.92;;
2474;SDS011;1248;48.694;10.160;2023-04-25T06:53:22;4.77;;;3.83;;
2474;SDS011;1248;48.694;10.160;2023-04-25T06:55:49;4.85;;;3.53;;
2474;SDS011;1248;48.694;10.160;2023-04-25T06:58:16;4.23;;;3.70;;
2474;SDS011;1248;48.694;10.160;2023-04-25T07:00:44;4.83;;;3.47;;
2474;SDS011;1248;48.694;10.160;2023-04-25T07:03:11;4.97;;;3.30;;
2474;SDS011;1248;48.694;10.160;2023-04-25T07:05:39;3.27;;;2.97;;
2474;SDS011;1248;48.694;10.160;2023-04-25T07:08:06;5.43;;;3.43;;
2474;SDS011;1248;48.694;10.160;2023-04-25T07:10:33;8.57;;;4.33;;
2474;SDS011;1248;48.694;10.160;2023-04-25T07:13:00;6.50;;;4.25;;
2474;SDS011;1248;48.694;10.160;2023-04-25T07:15:27;4.83;;;4.40;;
2474;SDS011;1248;48.694;10.160;2023-04-25T07:17:54;7.20;;;3.80;;
2474;SDS011;1248;48.694;10.160;2023-04-25T07:20:21;6.05;;;3.70;;
2474;SDS011;1248;48.694;10.160;2023-04-25T07:22:50;7.07;;;4.87;;
2474;SDS011;1248;48.694;10.160;2023-04-25T07:25:17;5.60;;;4.13;;
2474;SDS011;1248;48.694;10.160;2023-04-25T07:27:44;5.17;;;3.50;;
2474;SDS011;1248;48.694;10.160;2023-04-25T07:30:11;6.15;;;3.47;;
2474;SDS011;1248;48.694;10.160;2023-04-25T07:32:38;6.37;;;3.70;;
2474;SDS011;1248;48.694;10.160;2023-04-25T07:35:06;7.70;;;3.47;;
2474;SDS011;1248;48.694;10.160;2023-04-25T07:37:33;4.10;;;3.70;;
2474;SDS011;1248;48.694;10.160;2023-04-25T07:40:02;7.55;;;4.07;;
2474;SDS011;1248;48.694;10.160;2023-04-25T07:42:30;7.33;;;3.87;;
2474;SDS011;1248;48.694;10.160;2023-04-25T07:44:57;6.20;;;4.30;;
2474;SDS011;1248;48.694;10.160;2023-04-25T07:47:24;9.50;;;4.50;;
2474;SDS011;1248;48.694;10.160;2023-04-25T07:49:52;4.27;;;3.90;;
2474;SDS011;1248;48.694;10.160;2023-04-25T07:52:19;4.10;;;3.70;;
2474;SDS011;1248;48.694;10.160;2023-04-25T07:54:46;5.37;;;3.67;;
2474;SDS011;1248;48.694;10.160;2023-04-25T07:57:15;4.07;;;3.60;;
2474;SDS011;1248;48.694;10.160;2023-04-25T07:59:42;6.37;;;3.93;;
2474;SDS011;1248;48.694;10.160;2023-04-25T08:02:09;4.93;;;4.03;;
2474;SDS011;1248;48.694;10.160;2023-04-25T08:04:36;4.88;;;3.28;;
2474;SDS011;1248;48.694;10.160;2023-04-25T08:07:03;7.05;;;3.60;;
2474;SDS011;1248;48.694;10.160;2023-04-25T08:09:30;3.93;;;3.53;;
2474;SDS011;1248;48.694;10.160;2023-04-25T08:12:00;4.53;;;3.83;;
2474;SDS011;1248;48.694;10.160;2023-04-25T08:14:28;5.67;;;3.30;;
2474;SDS011;1248;48.694;10.160;2023-04-25T08:17:01;4.23;;;3.87;;
2474;SDS011;1248;48.694;10.160;2023-04-25T08:19:28;4.80;;;3.33;;
2474;SDS011;1248;48.694;10.160;2023-04-25T08:21:56;3.80;;;3.50;;
2474;SDS011;1248;48.694;10.160;2023-04-25T08:24:23;4.00;;;3.23;;
2474;SDS011;1248;48.694;10.160;2023-04-25T08:26:50;5.10;;;3.37;;
2474;SDS011;1248;48.694;10.160;2023-04-25T08:29:17;3.97;;;3.57;;
2474;SDS011;1248;48.694;10.160;2023-04-25T08:31:46;5.50;;;3.93;;
2474;SDS011;1248;48.694;10.160;2023-04-25T08:34:13;3.63;;;3.28;;
2474;SDS011;1248;48.694;10.160;2023-04-25T08:36:40;7.80;;;3.60;;
2474;SDS011;1248;48.694;10.160;2023-04-25T08:39:07;3.70;;;3.40;;
2474;SDS011;1248;48.694;10.160;2023-04-25T08:41:36;3.30;;;2.87;;
2474;SDS011;1248;48.694;10.160;2023-04-25T08:44:03;3.53;;;3.10;;
2474;SDS011;1248;48.694;10.160;2023-04-25T08:46:32;5.03;;;3.43;;
2474;SDS011;1248;48.694;10.160;2023-04-25T08:49:01;3.50;;;3.20;;
2474;SDS011;1248;48.694;10.160;2023-04-25T08:51:30;3.93;;;3.27;;
2474;SDS011;1248;48.694;10.160;2023-04-25T08:54:00;5.73;;;3.50;;
2474;SDS011;1248;48.694;10.160;2023-04-25T08:56:31;3.33;;;3.03;;
2474;SDS011;1248;48.694;10.160;2023-04-25T08:59:00;3.90;;;3.58;;
2474;SDS011;1248;48.694;10.160;2023-04-25T09:01:28;3.73;;;3.30;;
2474;SDS011;1248;48.694;10.160;2023-04-25T09:03:55;3.43;;;3.20;;
2474;SDS011;1248;48.694;10.160;2023-04-25T09:06:25;2.60;;;2.40;;
2474;SDS011;1248;48.694;10.160;2023-04-25T09:08:53;3.87;;;3.00;;
2474;SDS011;1248;48.694;10.160;2023-04-25T09:11:20;4.20;;;3.80;;
2474;SDS011;1248;48.694;10.160;2023-04-25T09:13:47;3.20;;;2.90;;
2474;SDS011;1248;48.694;10.160;2023-04-25T09:16:14;3.40;;;3.10;;
2474;SDS011;1248;48.694;10.160;2023-04-25T09:18:42;4.27;;;3.87;;
2474;SDS011;1248;48.694;10.160;2023-04-25T09:21:10;3.97;;;3.67;;
2474;SDS011;1248;48.694;10.160;2023-04-25T09:23:40;4.60;;;4.20;;
2474;SDS011;1248;48.694;10.160;2023-04-25T09:26:08;4.27;;;3.87;;
2474;SDS011;1248;48.694;10.160;2023-04-25T09:28:35;5.60;;;5.20;;
2474;SDS011;1248;48.694;10.160;2023-04-25T09:31:03;4.20;;;3.80;;
2474;SDS011;1248;48.694;10.160;2023-04-25T09:33:31;5.47;;;4.80;;
2474;SDS011;1248;48.694;10.160;2023-04-25T09:36:02;5.20;;;4.70;;
2474;SDS011;1248;48.694;10.160;2023-04-25T09:38:30;6.13;;;5.30;;
2474;SDS011;1248;48.694;10.160;2023-04-25T09:40:58;6.23;;;5.63;;
2474;SDS011;1248;48.694;10.160;2023-04-25T09:43:27;6.40;;;5.83;;
2474;SDS011;1248;48.694;10.160;2023-04-25T09:45:55;6.37;;;5.80;;
2474;SDS011;1248;48.694;10.160;2023-04-25T09:48:25;9.33;;;6.53;;
2474;SDS011;1248;48.694;10.160;2023-04-25T09:51:05;7.23;;;6.30;;
2474;SDS011;1248;48.694;10.160;2023-04-25T09:53:35;6.67;;;6.07;;
2474;SDS011;1248;48.694;10.160;2023-04-25T09:56:05;5.70;;;5.20;;
2474;SDS011;1248;48.694;10.160;2023-04-25T09:58:33;6.60;;;6.03;;
2474;SDS011;1248;48.694;10.160;2023-04-25T10:01:01;7.07;;;6.37;;
2474;SDS011;1248;48.694;10.160;2023-04-25T10:03:29;8.47;;;7.57;;
2474;SDS011;1248;48.694;10.160;2023-04-25T10:05:57;9.70;;;8.07;;
2474;SDS011;1248;48.694;10.160;2023-04-25T10:08:27;7.73;;;6.93;;
2474;SDS011;1248;48.694;10.160;2023-04-25T10:10:59;6.33;;;5.77;;
2474;SDS011;1248;48.694;10.160;2023-04-25T10:13:28;6.27;;;5.67;;
2474;SDS011;1248;48.694;10.160;2023-04-25T10:15:55;6.50;;;5.90;;
2474;SDS011;1248;48.694;10.160;2023-04-25T10:18:24;6.23;;;5.63;;
2474;SDS011;1248;48.694;10.160;2023-04-25T10:20:52;6.77;;;5.30;;
2474;SDS011;1248;48.694;10.160;2023-04-25T10:23:20;7.40;;;5.80;;
2474;SDS011;1248;48.694;10.160;2023-04-25T10:25:47;7.47;;;4.77;;
2474;SDS011;1248;48.694;10.160;2023-04-25T10:28:14;5.53;;;5.03;;
2474;SDS011;1248;48.694;10.160;2023-04-25T10:33:35;5.80;;;5.10;;
2474;SDS011;1248;48.694;10.160;2023-04-25T10:36:12;4.80;;;4.40;;
2474;SDS011;1248;48.694;10.160;2023-04-25T10:38:41;4.83;;;4.07;;
2474;SDS011;1248;48.694;10.160;2023-04-25T10:41:09;5.23;;;4.63;;
2474;SDS011;1248;48.694;10.160;2023-04-25T10:43:38;5.37;;;4.30;;
2474;SDS011;1248;48.694;10.160;2023-04-25T10:46:15;4.90;;;4.40;;
2474;SDS011;1248;48.694;10.160;2023-04-25T10:48:48;4.47;;;4.07;;
2474;SDS011;1248;48.694;10.160;2023-04-25T10:51:16;4.30;;;3.60;;
2474;SDS011;1248;48.694;10.160;2023-04-25T10:53:45;3.65;;;3.10;;
2474;SDS011;1248;48.694;10.160;2023-04-25T10:56:16;3.13;;;2.83;;
2474;SDS011;1248;48.694;10.160;2023-04-25T10:58:44;3.63;;;3.33;;
2474;SDS011;1248;48.694;10.160;2023-04-25T11:01:11;3.77;;;3.37;;
2474;SDS011;1248;48.694;10.160;2023-04-25T11:03:40;4.40;;;3.73;;
2474;SDS011;1248;48.694;10.160;2023-04-25T11:06:10;4.17;;;3.77;;
2474;SDS011;1248;48.694;10.160;2023-04-25T11:08:50;4.97;;;4.47;;
2474;SDS011;1248;48.694;10.160;2023-04-25T11:11:17;4.40;;;4.00;;
2474;SDS011;1248;48.694;10.160;2023-04-25T11:13:47;3.90;;;3.60;;
2474;SDS011;1248;48.694;10.160;2023-04-25T11:16:15;3.77;;;3.37;;
2474;SDS011;1248;48.694;10.160;2023-04-25T11:18:42;2.60;;;2.40;;
2474;SDS011;1248;48.694;10.160;2023-04-25T11:21:11;3.00;;;2.70;;
2474;SDS011;1248;48.694;10.160;2023-04-25T11:23:38;3.10;;;2.20;;
2474;SDS011;1248;48.694;10.160;2023-04-25T11:26:05;2.17;;;2.00;;
2474;SDS011;1248;48.694;10.160;2023-04-25T11:28:32;2.97;;;2.27;;
2474;SDS011;1248;48.694;10.160;2023-04-25T11:30:59;2.63;;;2.30;;
2474;SDS011;1248;48.694;10.160;2023-04-25T11:33:26;2.90;;;2.57;;
2474;SDS011;1248;48.694;10.160;2023-04-25T11:35:54;4.80;;;2.97;;
2474;SDS011;1248;48.694;10.160;2023-04-25T11:38:23;3.83;;;2.73;;
2474;SDS011;1248;48.694;10.160;2023-04-25T11:40:51;3.10;;;2.60;;
2474;SDS011;1248;48.694;10.160;2023-04-25T11:43:20;2.80;;;2.50;;
2474;SDS011;1248;48.694;10.160;2023-04-25T11:45:47;2.60;;;2.40;;
2474;SDS011;1248;48.694;10.160;2023-04-25T11:48:14;3.73;;;3.43;;
2474;SDS011;1248;48.694;10.160;2023-04-25T11:50:41;4.67;;;4.20;;
2474;SDS011;1248;48.694;10.160;2023-04-25T11:53:08;5.53;;;4.00;;
2474;SDS011;1248;48.694;10.160;2023-04-25T11:55:37;5.10;;;4.60;;
2474;SDS011;1248;48.694;10.160;2023-04-25T11:58:05;3.63;;;3.33;;
2474;SDS011;1248;48.694;10.160;2023-04-25T12:00:34;4.77;;;3.80;;
2474;SDS011;1248;48.694;10.160;2023-04-25T12:03:01;5.20;;;4.70;;
2474;SDS011;1248;48.694;10.160;2023-04-25T12:05:29;8.13;;;5.40;;
2474;SDS011;1248;48.694;10.160;2023-04-25T12:08:08;5.80;;;4.90;;
2474;SDS011;1248;48.694;10.160;2023-04-25T12:10:39;6.50;;;5.03;;
2474;SDS011;1248;48.694;10.160;2023-04-25T12:13:22;6.73;;;6.03;;
2474;SDS011;1248;48.694;10.160;2023-04-25T12:15:50;5.50;;;5.00;;
2474;SDS011;1248;48.694;10.160;2023-04-25T12:18:18;2.67;;;2.47;;
2474;SDS011;1248;48.694;10.160;2023-04-25T12:20:46;3.13;;;2.87;;
2474;SDS011;1248;48.694;10.160;2023-04-25T12:23:13;3.00;;;2.57;;
2474;SDS011;1248;48.694;10.160;2023-04-25T12:25:42;2.70;;;1.93;;
2474;SDS011;1248;48.694;10.160;2023-04-25T12:28:11;2.10;;;1.90;;
2474;SDS011;1248;48.694;10.160;2023-04-25T12:30:52;2.10;;;2.00;;
2474;SDS011;1248;48.694;10.160;2023-04-25T12:33:23;2.27;;;1.50;;
2474;SDS011;1248;48.694;10.160;2023-04-25T12:35:50;1.83;;;1.73;;
2474;SDS011;1248;48.694;10.160;2023-04-25T12:38:20;1.40;;;1.30;;
2474;SDS011;1248;48.694;10.160;2023-04-25T12:40:49;1.93;;;1.33;;
2474;SDS011;1248;48.694;10.160;2023-04-25T12:43:16;1.60;;;1.50;;
2474;SDS011;1248;48.694;10.160;2023-04-25T12:45:44;1.50;;;1.40;;
2474;SDS011;1248;48.694;10.160;2023-04-25T12:48:11;2.07;;;1.97;;
2474;SDS011;1248;48.694;10.160;2023-04-25T12:50:38;2.00;;;1.90;;
2474;SDS011;1248;48.694;10.160;2023-04-25T12:53:05;1.77;;;1.63;;
2474;SDS011;1248;48.694;10.160;2023-04-25T12:55:32;2.20;;;2.00;;
2474;SDS011;1248;48.694;10.160;2023-04-25T12:58:00;3.13;;;2.73;;
2474;SDS011;1248;48.694;10.160;2023-04-25T13:00:27;4.00;;;3.70;;
2474;SDS011;1248;48.694;10.160;2023-04-25T13:02:54;3.93;;;3.40;;
2474;SDS011;1248;48.694;10.160;2023-04-25T13:05:21;4.03;;;3.63;;
2474;SDS011;1248;48.694;10.160;2023-04-25T13:07:48;3.50;;;3.10;;
2474;SDS011;1248;48.694;10.160;2023-04-25T13:10:15;4.10;;;3.70;;
2474;SDS011;1248;48.694;10.160;2023-04-25T13:12:43;4.50;;;4.10;;
2474;SDS011;1248;48.694;10.160;2023-04-25T13:15:12;3.87;;;3.40;;
2474;SDS011;1248;48.694;10.160;2023-04-25T13:17:41;4.37;;;3.97;;
2474;SDS011;1248;48.694;10.160;2023-04-25T13:20:08;4.07;;;3.70;;
2474;SDS011;1248;48.694;10.160;2023-04-25T13:22:37;4.33;;;3.30;;
2474;SDS011;1248;48.694;10.160;2023-04-25T13:25:04;3.90;;;3.50;;
2474;SDS011;1248;48.694;10.160;2023-04-25T13:27:33;4.27;;;3.87;;
2474;SDS011;1248;48.694;10.160;2023-04-25T13:30:02;4.23;;;3.93;;
2474;SDS011;1248;48.694;10.160;2023-04-25T13:32:34;6.00;;;4.50;;
2474;SDS011;1248;48.694;10.160;2023-04-25T13:35:02;4.40;;;3.10;;
2474;SDS011;1248;48.694;10.160;2023-04-25T13:37:30;4.03;;;3.30;;
2474;SDS011;1248;48.694;10.160;2023-04-25T13:39:58;4.00;;;3.47;;
2474;SDS011;1248;48.694;10.160;2023-04-25T13:42:25;4.60;;;2.87;;
2474;SDS011;1248;48.694;10.160;2023-04-25T13:44:52;2.92;;;2.45;;
2474;SDS011;1248;48.694;10.160;2023-04-25T13:47:19;4.87;;;2.63;;
2474;SDS011;1248;48.694;10.160;2023-04-25T13:49:48;4.83;;;3.20;;
2474;SDS011;1248;48.694;10.160;2023-04-25T13:52:15;3.57;;;2.70;;
2474;SDS011;1248;48.694;10.160;2023-04-25T13:54:42;4.20;;;2.90;;
2474;SDS011;1248;48.694;10.160;2023-04-25T13:57:09;3.13;;;2.40;;
2474;SDS011;1248;48.694;10.160;2023-04-25T13:59:37;3.30;;;3.00;;
2474;SDS011;1248;48.694;10.160;2023-04-25T14:02:04;3.20;;;2.90;;
2474;SDS011;1248;48.694;10.160;2023-04-25T14:04:31;8.63;;;4.47;;
2474;SDS011;1248;48.694;10.160;2023-04-25T14:06:59;4.67;;;3.70;;
2474;SDS011;1248;48.694;10.160;2023-04-25T14:09:27;3.77;;;3.10;;
2474;SDS011;1248;48.694;10.160;2023-04-25T14:11:54;4.63;;;3.73;;
2474;SDS011;1248;48.694;10.160;2023-04-25T14:14:22;4.00;;;3.23;;
2474;SDS011;1248;48.694;10.160;2023-04-25T14:16:50;5.70;;;3.87;;
2474;SDS011;1248;48.694;10.160;2023-04-25T14:19:19;4.43;;;3.67;;
2474;SDS011;1248;48.694;10.160;2023-04-25T14:21:46;5.00;;;4.60;;
2474;SDS011;1248;48.694;10.160;2023-04-25T14:24:15;3.30;;;3.00;;
2474;SDS011;1248;48.694;10.160;2023-04-25T14:26:42;3.90;;;3.60;;
2474;SDS011;1248;48.694;10.160;2023-04-25T14:29:10;4.10;;;3.70;;
2474;SDS011;1248;48.694;10.160;2023-04-25T14:31:37;6.27;;;4.10;;
2474;SDS011;1248;48.694;10.160;2023-04-25T14:34:05;5.87;;;3.57;;
2474;SDS011;1248;48.694;10.160;2023-04-25T14:36:32;3.17;;;2.80;;
2474;SDS011;1248;48.694;10.160;2023-04-25T14:39:00;6.70;;;4.10;;
2474;SDS011;1248;48.694;10.160;2023-04-25T14:41:28;4.70;;;3.70;;
2474;SDS011;1248;48.694;10.160;2023-04-25T14:43:55;6.87;;;3.93;;
2474;SDS011;1248;48.694;10.160;2023-04-25T14:46:23;3.20;;;2.57;;
2474;SDS011;1248;48.694;10.160;2023-04-25T14:48:50;4.03;;;2.90;;
2474;SDS011;1248;48.694;10.160;2023-04-25T14:51:17;4.90;;;2.73;;
2474;SDS011;1248;48.694;10.160;2023-04-25T14:53:44;9.33;;;3.90;;
2474;SDS011;1248;48.694;10.160;2023-04-25T14:56:11;3.20;;;2.90;;
2474;SDS011;1248;48.694;10.160;2023-04-25T14:58:40;3.23;;;2.43;;
2474;SDS011;1248;48.694;10.160;2023-04-25T15:01:07;4.27;;;3.47;;
2474;SDS011;1248;48.694;10.160;2023-04-25T15:03:34;4.53;;;3.90;;
2474;SDS011;1248;48.694;10.160;2023-04-25T15:06:01;5.20;;;3.50;;